Time;durP1;ratioP1;P1;durP2;ratioP2;P2;SDS_P1;SDS_P2;PMS_P1;PMS_P2;Temp;Humidity;BMP_temperature;BMP_pressure;BME280_temperature;BME280_humidity;BME280_pressure;Samples;Min_cycle;Max_cycle;Signal;HPM_P1;HPM_P2
2021/12/09 00:01:42;;;;;;;0.80;0.80;;;4.80;84.80;3.90;96891.00;;;;5115019;28;20206;-71
2021/12/09 00:04:14;;;;;;;0.80;0.80;;;4.70;84.60;3.80;96891.00;;;;5114914;28;20601;-70
2021/12/09 00:06:43;;;;;;;0.93;0.93;;;4.60;84.90;3.80;96891.00;;;;5114733;28;20213;-71
2021/12/09 00:09:17;;;;;;;0.60;0.60;;;4.60;85.20;3.80;96893.00;;;;5115197;28;20198;-71
2021/12/09 00:11:46;;;;;;;0.93;0.93;;;4.60;85.20;3.80;96898.00;;;;5115027;28;20209;-71
2021/12/09 00:14:20;;;;;;;2.37;1.10;;;4.60;85.50;3.60;96906.00;;;;5114997;28;20261;-70
2021/12/09 00:16:50;;;;;;;1.70;0.80;;;4.40;85.00;3.60;96895.00;;;;5114686;28;20201;-70
2021/12/09 00:19:17;;;;;;;0.70;0.70;;;4.50;85.50;3.60;96906.00;;;;5114496;28;20723;-70
2021/12/09 00:21:44;;;;;;;1.47;1.37;;;4.40;85.60;3.60;96897.00;;;;5114648;28;20251;-70
2021/12/09 00:24:12;;;;;;;0.70;0.70;;;4.40;85.90;3.60;96907.00;;;;5114681;28;20277;-71
2021/12/09 00:26:39;;;;;;;0.70;0.70;;;4.50;86.20;3.70;96910.00;;;;5114563;28;20688;-70
2021/12/09 00:29:07;;;;;;;0.83;0.83;;;4.50;86.30;3.70;96895.00;;;;5113885;28;20250;-70
2021/12/09 00:31:33;;;;;;;0.70;0.70;;;4.50;86.40;3.70;96906.00;;;;5114566;28;20232;-70
2021/12/09 00:34:01;;;;;;;0.70;0.70;;;4.60;85.80;3.80;96906.00;;;;5114491;28;20257;-71
2021/12/09 00:36:34;;;;;;;0.60;0.60;;;4.60;85.60;3.60;96905.00;;;;5114509;28;20198;-70
2021/12/09 00:39:01;;;;;;;0.60;0.60;;;4.50;85.90;3.70;96900.00;;;;5114315;28;20229;-71
2021/12/09 00:41:28;;;;;;;0.50;0.50;;;4.50;86.10;3.70;96906.00;;;;5114424;28;20226;-72
2021/12/09 00:43:54;;;;;;;0.70;0.70;;;4.50;86.10;3.70;96906.00;;;;5114355;28;20272;-71
2021/12/09 00:46:22;;;;;;;0.83;0.83;;;4.50;86.20;3.70;96911.00;;;;5114397;28;20326;-71
2021/12/09 00:48:48;;;;;;;0.67;0.67;;;4.50;86.40;3.70;96903.00;;;;5096414;28;20202;-70
2021/12/09 00:51:16;;;;;;;0.70;0.70;;;4.50;86.50;3.70;96908.00;;;;5114343;28;20198;-71
2021/12/09 00:53:43;;;;;;;2.17;2.03;;;4.50;86.80;3.70;96910.00;;;;5114254;28;20248;-71
2021/12/09 00:56:12;;;;;;;1.47;1.47;;;4.50;86.50;3.60;96908.00;;;;5114208;28;20207;-70
2021/12/09 00:58:41;;;;;;;0.60;0.60;;;4.50;86.50;3.60;96914.00;;;;5096205;28;20379;-70
2021/12/09 01:01:12;;;;;;;0.90;0.90;;;4.40;86.70;3.60;96923.00;;;;5114234;28;20228;-70
2021/12/09 01:03:41;;;;;;;0.70;0.70;;;4.40;86.90;3.50;96924.00;;;;5096291;28;20224;-70
2021/12/09 01:06:08;;;;;;;1.50;1.33;;;4.40;86.90;3.40;96910.00;;;;5114173;28;20222;-71
2021/12/09 01:08:35;;;;;;;0.80;0.80;;;4.40;87.20;3.50;96920.00;;;;5114055;28;20248;-70
2021/12/09 01:11:03;;;;;;;0.70;0.70;;;4.30;87.30;3.50;96927.00;;;;5114114;28;20205;-70
2021/12/09 01:13:29;;;;;;;0.60;0.60;;;4.30;87.50;3.50;96932.00;;;;5113714;28;20665;-71
2021/12/09 01:15:57;;;;;;;1.47;1.47;;;4.40;87.50;3.60;96934.00;;;;5114184;28;20640;-70
2021/12/09 01:18:24;;;;;;;0.60;0.60;;;4.40;87.70;3.60;96932.00;;;;5113819;28;20640;-70
2021/12/09 01:20:52;;;;;;;0.80;0.80;;;4.40;87.80;3.60;96930.00;;;;5096149;28;20293;-71
2021/12/09 01:23:19;;;;;;;1.00;1.00;;;4.40;87.50;3.50;96920.00;;;;5113851;28;20206;-70
2021/12/09 01:25:47;;;;;;;0.70;0.70;;;4.40;87.50;3.50;96917.00;;;;5095833;28;20229;-71
2021/12/09 01:28:21;;;;;;;0.80;0.80;;;4.30;87.40;3.50;96925.00;;;;5113773;28;20281;-71
2021/12/09 01:30:50;;;;;;;1.07;1.00;;;4.40;87.70;3.50;96926.00;;;;5113769;28;20198;-71
2021/12/09 01:33:21;;;;;;;3.23;1.10;;;4.40;87.90;3.60;96927.00;;;;5095706;28;20654;-70
2021/12/09 01:35:48;;;;;;;0.93;0.70;;;4.40;87.90;3.60;96931.00;;;;5113591;28;20190;-70
2021/12/09 01:38:17;;;;;;;1.10;1.00;;;4.40;87.90;3.50;96927.00;;;;5113514;28;20202;-70
2021/12/09 01:40:44;;;;;;;1.07;1.07;;;4.40;87.60;3.60;96930.00;;;;5099106;28;20210;-70
2021/12/09 01:43:14;;;;;;;1.20;1.20;;;4.40;88.60;3.70;96917.00;;;;5117020;28;20209;-70
2021/12/09 01:45:43;;;;;;;0.90;0.90;;;4.50;87.90;3.70;96940.00;;;;5116912;28;20657;-70
2021/12/09 01:48:10;;;;;;;0.87;0.87;;;4.50;87.90;3.60;96938.00;;;;5099224;28;20548;-70
2021/12/09 01:50:37;;;;;;;0.70;0.70;;;4.50;87.50;3.70;96945.00;;;;5117021;28;20202;-70
2021/12/09 01:53:07;;;;;;;1.10;1.03;;;4.50;87.70;3.70;96958.00;;;;5116802;28;20221;-70
2021/12/09 01:55:36;;;;;;;1.07;1.07;;;4.50;87.70;3.70;96942.00;;;;5116894;28;20202;-71
2021/12/09 01:58:03;;;;;;;1.30;1.20;;;4.50;87.60;3.70;96945.00;;;;5116781;28;20273;-70
2021/12/09 02:00:32;;;;;;;0.90;0.90;;;4.50;87.60;3.80;96952.00;;;;5116811;28;20322;-71
2021/12/09 02:03:00;;;;;;;1.03;1.03;;;4.60;87.50;3.70;96943.00;;;;5116782;28;20210;-71
2021/12/09 02:05:29;;;;;;;0.77;0.77;;;4.50;87.10;3.70;96943.00;;;;5116607;28;20281;-71
2021/12/09 02:07:57;;;;;;;0.60;0.60;;;4.50;87.30;3.80;96940.00;;;;5116908;28;20213;-72
2021/12/09 02:10:23;;;;;;;1.73;1.27;;;4.50;87.70;3.90;96940.00;;;;5098903;28;20198;-71
2021/12/09 02:12:54;;;;;;;1.60;1.50;;;4.60;87.70;3.80;96911.00;;;;5116711;28;20272;-70
2021/12/09 02:15:23;;;;;;;0.60;0.60;;;4.60;86.60;3.80;96946.00;;;;5116587;28;20345;-70
2021/12/09 02:17:52;;;;;;;0.77;0.77;;;4.60;86.60;3.80;96963.00;;;;5116690;28;20210;-70
2021/12/09 02:20:18;;;;;;;1.30;1.13;;;4.60;86.80;3.80;96963.00;;;;5116499;28;20266;-72
2021/12/09 02:22:48;;;;;;;2.07;1.97;;;4.60;86.90;3.70;96969.00;;;;5116479;28;20194;-70
2021/12/09 02:25:17;;;;;;;6.87;1.43;;;4.60;86.40;3.70;96963.00;;;;5116283;28;20549;-70
2021/12/09 02:27:45;;;;;;;1.13;0.80;;;4.50;86.70;3.80;96972.00;;;;5116601;28;20287;-70
2021/12/09 02:30:13;;;;;;;1.17;1.07;;;4.60;86.30;3.90;96984.00;;;;5116351;28;20217;-70
2021/12/09 02:32:43;;;;;;;1.17;1.10;;;4.60;85.90;3.70;96991.00;;;;5116200;28;20222;-70
2021/12/09 02:35:10;;;;;;;0.80;0.80;;;4.50;85.30;3.50;96991.00;;;;5116283;28;20613;-70
2021/12/09 02:37:39;;;;;;;1.20;1.10;;;4.40;85.60;3.70;96998.00;;;;5116319;28;20209;-70
2021/12/09 02:40:11;;;;;;;0.80;0.80;;;4.50;86.10;3.50;97006.00;;;;5116124;28;20210;-69
2021/12/09 02:42:40;;;;;;;0.60;0.60;;;4.40;85.90;3.50;97000.00;;;;5116171;28;20708;-71
2021/12/09 02:45:10;;;;;;;0.70;0.70;;;4.30;86.10;3.60;97019.00;;;;5116082;28;20286;-71
2021/12/09 02:47:39;;;;;;;1.37;1.30;;;4.40;86.10;3.60;97011.00;;;;5115989;28;20200;-72
2021/12/09 02:50:08;;;;;;;2.63;1.23;;;4.50;85.40;3.60;97023.00;;;;5115477;28;20198;-70
2021/12/09 02:52:35;;;;;;;0.80;0.80;;;4.40;85.00;3.70;97008.00;;;;5115738;28;20240;-70
2021/12/09 02:55:02;;;;;;;1.07;1.07;;;4.50;85.50;3.80;97010.00;;;;5116072;28;20272;-70
2021/12/09 02:57:31;;;;;;;1.80;1.70;;;4.50;84.40;3.70;96996.00;;;;5115990;28;20251;-70
2021/12/09 02:59:58;;;;;;;0.60;0.60;;;4.50;84.10;3.70;96998.00;;;;5115714;28;20833;-70
2021/12/09 03:02:25;;;;;;;0.90;0.90;;;4.50;84.10;3.70;97001.00;;;;5115792;28;20280;-70
2021/12/09 03:04:55;;;;;;;0.93;0.93;;;4.50;84.30;3.60;97004.00;;;;5115873;28;20290;-70
2021/12/09 03:07:27;;;;;;;1.80;1.60;;;4.40;83.90;3.60;96993.00;;;;5115801;28;20714;-70
2021/12/09 03:09:59;;;;;;;1.10;1.10;;;4.40;84.00;3.50;96986.00;;;;5115844;28;20597;-70
2021/12/09 03:12:30;;;;;;;0.80;0.80;;;4.30;84.50;3.50;96993.00;;;;5115436;28;20684;-70
2021/12/09 03:14:58;;;;;;;1.00;1.00;;;4.40;84.20;3.70;97001.00;;;;5115746;28;20236;-70
2021/12/09 03:17:28;;;;;;;1.10;1.10;;;4.40;85.50;3.70;96981.00;;;;5115727;28;20289;-70
2021/12/09 03:19:54;;;;;;;0.97;0.97;;;4.40;84.60;3.60;96999.00;;;;5115509;28;20499;-70
2021/12/09 03:22:22;;;;;;;1.07;1.07;;;4.40;83.80;3.50;97000.00;;;;5097547;28;20510;-70
2021/12/09 03:24:50;;;;;;;1.13;1.10;;;4.40;83.80;3.70;97004.00;;;;5097490;28;20245;-70
2021/12/09 03:27:17;;;;;;;0.60;0.60;;;4.40;84.30;3.70;97011.00;;;;5115334;28;20206;-70
2021/12/09 03:29:47;;;;;;;1.10;1.10;;;4.50;84.00;3.60;97009.00;;;;5115473;28;20202;-70
2021/12/09 03:32:17;;;;;;;0.83;0.83;;;4.40;83.70;3.70;97006.00;;;;5115053;28;20308;-70
2021/12/09 03:34:45;;;;;;;1.63;1.47;;;4.40;84.20;3.60;96993.00;;;;5115470;28;20210;-70
2021/12/09 03:37:17;;;;;;;1.00;1.00;;;4.40;83.60;3.50;97013.00;;;;5097419;28;20240;-70
2021/12/09 03:39:44;;;;;;;0.60;0.60;;;4.30;83.50;3.50;97008.00;;;;5115254;28;20205;-70
2021/12/09 03:42:16;;;;;;;1.53;1.43;;;4.30;84.30;3.50;97006.00;;;;5115224;28;20229;-70
2021/12/09 03:44:48;;;;;;;1.63;1.53;;;4.30;84.40;3.60;97014.00;;;;5115212;28;20669;-70
2021/12/09 03:47:21;;;;;;;0.63;0.63;;;4.30;84.70;3.60;97014.00;;;;5115091;28;20561;-70
2021/12/09 03:49:47;;;;;;;1.10;1.07;;;4.30;85.20;3.50;97018.00;;;;5115251;28;20198;-69
2021/12/09 03:52:15;;;;;;;1.27;1.27;;;4.30;84.80;3.50;96963.00;;;;5097103;28;20513;-70
2021/12/09 03:54:44;;;;;;;1.53;1.43;;;4.40;83.90;3.50;97023.00;;;;5114836;28;20680;-70
2021/12/09 03:57:12;;;;;;;1.03;1.03;;;4.30;83.70;3.60;97019.00;;;;5114952;28;20209;-70
2021/12/09 03:59:40;;;;;;;1.33;1.23;;;4.30;83.70;3.60;97013.00;;;;5114792;28;20201;-70
2021/12/09 04:02:07;;;;;;;0.70;0.70;;;4.30;83.80;3.30;97007.00;;;;5113991;28;20212;-70
2021/12/09 04:04:35;;;;;;;0.80;0.80;;;4.30;83.70;3.30;97003.00;;;;5114768;28;20286;-71
2021/12/09 04:07:05;;;;;;;1.57;1.47;;;4.20;83.80;3.30;97018.00;;;;5115122;28;20284;-70
2021/12/09 04:09:31;;;;;;;7.53;2.40;;;4.20;84.10;3.30;97020.00;;;;5115233;28;20251;-70
2021/12/09 04:11:58;;;;;;;0.70;0.70;;;4.20;84.20;3.30;97020.00;;;;5114986;28;20228;-70
2021/12/09 04:14:30;;;;;;;0.80;0.80;;;4.20;83.80;3.30;97019.00;;;;5114883;28;20217;-70
2021/12/09 04:16:56;;;;;;;0.67;0.67;;;4.10;84.10;3.30;97030.00;;;;5096914;28;20581;-70
2021/12/09 04:19:23;;;;;;;1.37;1.33;;;4.20;84.00;3.30;97030.00;;;;5114873;28;20201;-70
2021/12/09 04:21:53;;;;;;;0.73;0.73;;;4.20;83.70;3.30;97031.00;;;;5114648;28;20202;-70
2021/12/09 04:24:22;;;;;;;1.13;1.00;;;4.10;83.90;3.20;97034.00;;;;5114355;28;20512;-69
2021/12/09 04:26:52;;;;;;;1.67;1.40;;;4.00;83.60;3.20;97032.00;;;;5114506;28;20186;-70
2021/12/09 04:29:20;;;;;;;0.90;0.90;;;4.10;84.10;3.20;97030.00;;;;5114445;28;20202;-70
2021/12/09 04:31:48;;;;;;;5.33;2.33;;;4.00;83.90;3.10;97031.00;;;;5114248;28;20221;-72
2021/12/09 04:34:15;;;;;;;0.73;0.73;;;3.90;83.70;3.10;97025.00;;;;5096626;28;20225;-70
2021/12/09 04:36:42;;;;;;;0.70;0.70;;;3.90;83.90;3.20;97022.00;;;;5114362;28;20301;-70
2021/12/09 04:39:10;;;;;;;0.90;0.90;;;3.90;84.10;3.10;97024.00;;;;5114251;28;20304;-70
2021/12/09 04:41:37;;;;;;;1.50;1.20;;;4.00;83.70;3.20;97001.00;;;;5096383;28;20305;-70
2021/12/09 04:44:05;;;;;;;0.90;0.90;;;4.00;83.50;3.20;97038.00;;;;5114108;28;20216;-70
2021/12/09 04:46:32;;;;;;;0.70;0.70;;;4.00;83.20;3.10;97037.00;;;;5114274;28;20205;-70
2021/12/09 04:48:59;;;;;;;0.70;0.70;;;3.90;83.30;3.10;97052.00;;;;5114146;28;20203;-70
2021/12/09 04:51:26;;;;;;;0.70;0.70;;;3.90;83.20;3.00;97047.00;;;;5114043;28;20248;-70
2021/12/09 04:53:53;;;;;;;0.50;0.50;;;3.90;83.20;3.00;97050.00;;;;5114080;28;20221;-70
2021/12/09 04:56:20;;;;;;;0.70;0.70;;;3.90;83.10;2.80;97065.00;;;;5114419;28;20217;-70
2021/12/09 04:58:47;;;;;;;1.07;1.07;;;3.80;83.40;2.80;97070.00;;;;5114155;28;20567;-70
2021/12/09 05:01:14;;;;;;;1.37;1.37;;;3.70;83.80;2.80;97037.00;;;;5114098;28;20204;-70
2021/12/09 05:03:47;;;;;;;0.70;0.70;;;3.70;84.10;2.70;97054.00;;;;5114096;28;20204;-70
2021/12/09 05:06:15;;;;;;;0.80;0.80;;;3.70;84.90;2.80;97073.00;;;;5113960;28;20505;-70
2021/12/09 05:08:46;;;;;;;0.50;0.50;;;3.70;84.50;2.70;97066.00;;;;5096058;28;20227;-70
2021/12/09 05:11:28;;;;;;;1.27;1.27;;;3.70;84.60;2.80;97082.00;;;;5113840;28;20221;-70
2021/12/09 05:13:58;;;;;;;0.70;0.70;;;3.70;84.90;2.80;97090.00;;;;5114873;28;20221;-70
2021/12/09 05:16:26;;;;;;;0.80;0.80;;;3.60;84.90;2.80;97104.00;;;;5117564;28;20241;-70
2021/12/09 05:18:58;;;;;;;1.20;1.20;;;3.70;85.00;2.80;97107.00;;;;5117407;28;20237;-71
2021/12/09 05:21:29;;;;;;;1.10;1.10;;;3.70;85.20;2.70;97104.00;;;;5117437;28;20660;-70
2021/12/09 05:23:56;;;;;;;0.90;0.90;;;3.60;85.00;2.80;97101.00;;;;5117294;28;20291;-70
2021/12/09 05:26:27;;;;;;;1.63;1.53;;;3.70;85.40;2.70;97101.00;;;;5117406;28;20233;-70
2021/12/09 05:28:56;;;;;;;1.23;1.10;;;3.70;85.20;2.80;97113.00;;;;5117390;28;20213;-70
2021/12/09 05:34:14;;;;;;;1.23;1.23;;;3.60;85.30;2.70;97133.00;;;;5117202;28;20210;-70
2021/12/09 05:36:40;;;;;;;1.20;1.20;;;3.60;85.50;2.70;97138.00;;;;5099663;28;20663;-70
2021/12/09 05:39:11;;;;;;;0.90;0.90;;;3.60;85.40;2.70;97142.00;;;;5117135;28;20187;-72
2021/12/09 05:41:40;;;;;;;1.00;1.00;;;3.60;85.50;2.60;97148.00;;;;5117208;28;20313;-70
2021/12/09 05:44:09;;;;;;;0.80;0.80;;;3.60;85.50;2.70;97137.00;;;;5117068;28;20225;-70
2021/12/09 05:46:42;;;;;;;0.87;0.87;;;3.50;85.70;2.70;97143.00;;;;5099504;28;20526;-70
2021/12/09 05:49:10;;;;;;;1.23;1.03;;;3.60;85.60;2.70;97153.00;;;;5117102;28;20209;-70
2021/12/09 05:51:42;;;;;;;0.93;0.93;;;3.60;85.70;2.70;97148.00;;;;5116885;28;20257;-71
2021/12/09 05:54:10;;;;;;;0.80;0.80;;;3.50;85.70;2.70;97151.00;;;;5098953;28;20657;-70
2021/12/09 05:56:36;;;;;;;7.43;0.97;;;3.60;85.60;2.60;97154.00;;;;5116751;28;20197;-70
2021/12/09 05:59:05;;;;;;;0.70;0.70;;;3.50;85.50;2.60;97155.00;;;;5116718;28;20196;-70
2021/12/09 06:01:32;;;;;;;1.50;1.43;;;3.50;85.40;2.60;97153.00;;;;5116899;28;20201;-70
2021/12/09 06:03:59;;;;;;;0.77;0.77;;;3.50;85.30;2.60;97152.00;;;;5098904;28;20270;-70
2021/12/09 06:06:25;;;;;;;1.93;1.53;;;3.50;85.50;2.70;97155.00;;;;5116796;28;20205;-71
2021/12/09 06:08:52;;;;;;;0.80;0.80;;;3.50;85.60;2.60;97152.00;;;;5098985;28;20243;-72
2021/12/09 06:11:19;;;;;;;1.07;1.07;;;3.50;85.10;2.60;97157.00;;;;5115843;28;20258;-70
2021/12/09 06:13:48;;;;;;;1.03;1.03;;;3.50;85.00;2.70;97155.00;;;;5098704;28;20328;-70
2021/12/09 06:16:16;;;;;;;0.53;0.53;;;3.50;85.00;2.70;97143.00;;;;5116646;28;20193;-71
2021/12/09 06:18:43;;;;;;;1.00;0.93;;;3.60;84.90;2.70;97158.00;;;;5116787;28;20617;-70
2021/12/09 06:21:10;;;;;;;2.03;0.93;;;3.50;84.90;2.80;97158.00;;;;5098663;28;20198;-70
2021/12/09 06:23:38;;;;;;;1.10;1.10;;;3.60;84.80;2.80;97157.00;;;;5116315;28;20212;-70
2021/12/09 06:26:06;;;;;;;0.93;0.93;;;3.60;84.40;2.80;97160.00;;;;5115374;28;20256;-70
2021/12/09 06:28:33;;;;;;;1.03;1.03;;;3.60;84.60;2.70;97153.00;;;;5116537;28;20224;-70
2021/12/09 06:30:59;;;;;;;1.67;1.57;;;3.60;84.20;2.80;97151.00;;;;5098456;28;20673;-70
2021/12/09 06:33:28;;;;;;;4.07;2.00;;;3.60;84.40;2.80;97147.00;;;;5116367;28;20259;-70
2021/12/09 06:35:55;;;;;;;0.70;0.70;;;3.60;84.40;2.70;97152.00;;;;5116334;28;20201;-70
2021/12/09 06:38:22;;;;;;;1.10;1.10;;;3.50;84.10;2.70;97147.00;;;;5116339;28;20225;-70
2021/12/09 06:40:49;;;;;;;1.00;1.00;;;3.60;84.20;2.80;97148.00;;;;5116299;28;20266;-70
2021/12/09 06:43:18;;;;;;;18.70;1.87;;;3.60;84.10;2.70;97142.00;;;;5098273;28;20690;-70
2021/12/09 06:45:45;;;;;;;1.63;1.53;;;3.60;84.10;2.70;97148.00;;;;5116205;28;20221;-70
2021/12/09 06:48:14;;;;;;;0.90;0.90;;;3.60;84.30;2.70;97160.00;;;;5116170;28;20200;-70
2021/12/09 06:50:41;;;;;;;0.90;0.90;;;3.60;84.40;2.70;97147.00;;;;5116090;28;20252;-70
2021/12/09 06:53:10;;;;;;;2.17;2.07;;;3.60;84.50;2.70;97157.00;;;;5116073;28;20296;-70
2021/12/09 06:55:38;;;;;;;0.83;0.83;;;3.60;85.20;2.80;97163.00;;;;5115963;28;20655;-70
2021/12/09 06:58:05;;;;;;;7.40;1.67;;;3.60;84.80;2.80;97148.00;;;;5115910;28;20652;-70
2021/12/09 07:00:33;;;;;;;0.70;0.70;;;3.60;85.00;2.80;97149.00;;;;5116090;28;20706;-70
2021/12/09 07:03:01;;;;;;;0.90;0.90;;;3.60;85.90;2.80;97157.00;;;;5115979;28;20609;-70
2021/12/09 07:05:29;;;;;;;0.80;0.80;;;3.60;85.10;2.80;97164.00;;;;5115810;28;20201;-70
2021/12/09 07:07:57;;;;;;;0.97;0.97;;;3.60;85.00;2.70;97147.00;;;;5115779;28;20292;-70
2021/12/09 07:10:25;;;;;;;1.47;1.37;;;3.60;85.00;2.70;97156.00;;;;5115600;28;20671;-70
2021/12/09 07:12:55;;;;;;;1.27;1.27;;;3.60;85.30;2.60;97150.00;;;;5097797;28;20637;-71
2021/12/09 07:15:22;;;;;;;0.80;0.80;;;3.50;84.20;2.70;97163.00;;;;5097857;28;20253;-72
2021/12/09 07:17:51;;;;;;;0.87;0.87;;;3.50;85.00;2.70;97153.00;;;;5115575;28;20216;-70
2021/12/09 07:20:22;;;;;;;0.87;0.87;;;3.50;84.60;2.90;97161.00;;;;5115710;28;20283;-70
2021/12/09 07:22:51;;;;;;;2.03;1.57;;;3.60;83.80;2.80;97165.00;;;;5115601;28;20241;-70
2021/12/09 07:25:22;;;;;;;0.63;0.63;;;3.60;83.10;2.80;97155.00;;;;5115561;28;20202;-70
2021/12/09 07:27:49;;;;;;;0.70;0.70;;;3.70;82.90;2.80;97163.00;;;;5115696;28;20240;-69
2021/12/09 07:30:18;;;;;;;1.00;1.00;;;3.70;83.30;2.90;97168.00;;;;5097397;28;20313;-68
2021/12/09 07:32:45;;;;;;;1.00;1.00;;;3.70;84.00;3.00;97174.00;;;;5097285;28;20290;-69
2021/12/09 07:35:14;;;;;;;1.60;1.27;;;3.90;84.90;3.00;97183.00;;;;5115482;28;20197;-69
2021/12/09 07:37:44;;;;;;;0.70;0.70;;;3.90;84.40;3.00;97178.00;;;;5115122;28;20228;-68
2021/12/09 07:40:17;;;;;;;0.80;0.80;;;3.90;83.90;2.90;97184.00;;;;5115413;28;20224;-68
2021/12/09 07:42:45;;;;;;;0.70;0.70;;;3.80;83.60;3.00;97187.00;;;;5115350;28;20249;-70
2021/12/09 07:45:15;;;;;;;0.70;0.70;;;3.80;84.70;2.90;97192.00;;;;5115281;28;20687;-72
2021/12/09 07:47:43;;;;;;;1.07;1.07;;;3.80;83.60;2.90;97203.00;;;;5115133;28;20197;-73
2021/12/09 07:50:14;;;;;;;0.80;0.80;;;3.80;83.60;3.10;97193.00;;;;5115092;28;20217;-72
2021/12/09 07:52:45;;;;;;;1.23;1.10;;;3.90;83.70;3.10;97195.00;;;;5115129;28;20224;-73
2021/12/09 07:55:12;;;;;;;0.60;0.60;;;3.90;83.40;3.10;97194.00;;;;5097027;28;20298;-72
2021/12/09 07:57:40;;;;;;;1.13;1.13;;;3.90;83.20;3.20;97212.00;;;;5097232;28;20252;-72
2021/12/09 08:00:13;;;;;;;0.60;0.60;;;4.00;83.20;3.30;97209.00;;;;5097299;28;20222;-73
2021/12/09 08:02:42;;;;;;;1.10;1.10;;;4.10;83.00;3.20;97203.00;;;;5115226;28;20222;-72
2021/12/09 08:05:10;;;;;;;1.00;1.00;;;4.10;82.50;3.30;97210.00;;;;5115112;28;20236;-73
2021/12/09 08:07:37;;;;;;;0.90;0.90;;;4.10;82.70;3.30;97208.00;;;;5115543;28;20309;-72
2021/12/09 08:10:08;;;;;;;0.87;0.87;;;4.10;82.20;3.30;97202.00;;;;5115113;28;20213;-72
2021/12/09 08:12:39;;;;;;;5.40;2.23;;;4.10;82.20;3.20;97210.00;;;;5114792;28;20200;-72
2021/12/09 08:15:09;;;;;;;1.13;1.10;;;4.10;82.10;3.10;97199.00;;;;5114688;28;20225;-72
2021/12/09 08:17:46;;;;;;;6.93;2.80;;;4.00;82.20;3.30;97193.00;;;;5114891;28;20317;-71
2021/12/09 08:20:18;;;;;;;0.93;0.93;;;4.10;82.30;3.50;97161.00;;;;5114696;28;20675;-72
2021/12/09 08:22:47;;;;;;;1.17;1.17;;;4.20;82.00;3.40;97199.00;;;;5114756;28;20217;-71
2021/12/09 08:25:15;;;;;;;0.60;0.60;;;4.20;81.60;3.40;97168.00;;;;5114535;28;20230;-71
2021/12/09 08:27:44;;;;;;;0.80;0.80;;;4.20;81.70;3.40;97192.00;;;;5114556;28;20221;-72
2021/12/09 08:30:14;;;;;;;1.23;1.23;;;4.20;81.70;3.40;97206.00;;;;5114643;28;20267;-71
2021/12/09 08:32:41;;;;;;;0.90;0.90;;;4.20;81.70;3.30;97216.00;;;;5114384;28;20248;-72
2021/12/09 08:35:08;;;;;;;0.80;0.80;;;4.20;81.70;3.40;97196.00;;;;5114568;28;20702;-71
2021/12/09 08:37:36;;;;;;;0.73;0.73;;;4.20;82.20;3.50;97218.00;;;;5114404;28;20200;-71
2021/12/09 08:40:04;;;;;;;1.27;1.27;;;4.30;82.00;3.50;97219.00;;;;5114421;28;20221;-72
2021/12/09 08:42:31;;;;;;;4.90;1.47;;;4.30;81.50;3.70;97229.00;;;;5114505;28;20202;-72
2021/12/09 08:44:57;;;;;;;0.80;0.80;;;4.40;81.00;3.70;97224.00;;;;5114237;28;20301;-73
2021/12/09 08:47:26;;;;;;;1.63;1.53;;;4.40;80.30;3.70;97222.00;;;;5114438;28;20194;-72
2021/12/09 08:49:55;;;;;;;0.90;0.90;;;4.40;80.30;3.70;97225.00;;;;5098895;28;20246;-72
2021/12/09 08:52:22;;;;;;;1.00;1.00;;;4.50;80.10;3.80;97236.00;;;;5099991;28;20222;-71
2021/12/09 08:54:49;;;;;;;1.23;1.13;;;4.50;79.80;3.70;97230.00;;;;5117875;28;20214;-72
2021/12/09 08:57:15;;;;;;;1.20;1.20;;;4.50;79.50;3.90;97232.00;;;;5117976;28;20296;-73
2021/12/09 08:59:42;;;;;;;3.27;1.33;;;4.60;79.20;3.90;97233.00;;;;5117851;28;20296;-74
2021/12/09 09:02:09;;;;;;;1.73;1.17;;;4.60;78.50;3.80;97245.00;;;;5117868;28;20193;-73
2021/12/09 09:04:38;;;;;;;0.80;0.80;;;4.60;78.80;3.80;97239.00;;;;5117796;28;20290;-72
2021/12/09 09:07:07;;;;;;;1.00;1.00;;;4.60;78.90;3.90;97238.00;;;;5117819;28;20289;-72
2021/12/09 09:09:37;;;;;;;0.60;0.60;;;4.70;78.90;4.00;97246.00;;;;5117576;28;20581;-72
2021/12/09 09:12:08;;;;;;;2.13;1.93;;;4.70;79.00;4.10;97248.00;;;;5117761;28;20232;-72
2021/12/09 09:14:35;;;;;;;0.97;0.97;;;4.80;78.30;4.20;97260.00;;;;5117619;28;20753;-72
2021/12/09 09:17:03;;;;;;;0.90;0.90;;;4.90;79.00;4.10;97246.00;;;;5117543;28;20367;-72
2021/12/09 09:19:29;;;;;;;3.47;2.20;;;4.90;78.60;4.00;97253.00;;;;5117597;28;20272;-72
2021/12/09 09:21:56;;;;;;;1.00;1.00;;;4.80;78.90;4.20;97252.00;;;;5117583;28;20290;-72
2021/12/09 09:24:23;;;;;;;0.97;0.97;;;4.90;78.60;4.10;97259.00;;;;5116587;28;20300;-72
2021/12/09 09:26:52;;;;;;;0.97;0.97;;;4.90;78.20;4.20;97265.00;;;;5117491;28;20684;-71
2021/12/09 09:29:19;;;;;;;1.53;1.43;;;5.00;78.90;4.40;97262.00;;;;5099528;28;20397;-73
2021/12/09 09:31:46;;;;;;;1.13;1.10;;;5.10;79.40;4.40;97263.00;;;;5117414;28;20227;-72
2021/12/09 09:34:13;;;;;;;0.80;0.80;;;5.10;78.00;4.50;97264.00;;;;5117365;28;20301;-73
2021/12/09 09:36:44;;;;;;;2.70;1.53;;;5.30;78.30;4.70;97262.00;;;;5117287;28;20283;-73
2021/12/09 09:39:20;;;;;;;1.27;1.20;;;5.30;77.70;4.60;97261.00;;;;5117321;28;20194;-73
2021/12/09 09:41:59;;;;;;;0.90;0.90;;;5.30;77.10;4.60;97239.00;;;;5117180;28;20226;-72
2021/12/09 09:44:33;;;;;;;2.00;1.23;;;5.40;77.00;4.60;97270.00;;;;5099559;28;20197;-74
2021/12/09 09:47:05;;;;;;;1.27;1.17;;;5.40;77.10;4.80;97275.00;;;;5117490;28;20263;-73
2021/12/09 09:49:34;;;;;;;0.97;0.97;;;5.40;77.00;4.70;97287.00;;;;5117144;28;20194;-72
2021/12/09 09:52:01;;;;;;;1.17;1.17;;;5.50;77.80;4.70;97284.00;;;;5117223;28;20205;-73
2021/12/09 09:54:27;;;;;;;1.10;1.10;;;5.40;77.90;4.80;97256.00;;;;5098969;28;20560;-71
2021/12/09 09:56:54;;;;;;;1.30;1.30;;;5.50;78.50;4.80;97292.00;;;;5117005;28;20194;-72
2021/12/09 09:59:21;;;;;;;1.13;1.13;;;5.60;78.60;4.90;97287.00;;;;5099178;28;20701;-72
2021/12/09 10:01:52;;;;;;;2.37;1.90;;;5.60;78.00;4.80;97292.00;;;;5117395;28;20293;-73
2021/12/09 10:04:26;;;;;;;1.03;1.03;;;5.60;78.00;4.80;97299.00;;;;5117004;28;20571;-73
2021/12/09 10:06:53;;;;;;;1.13;1.13;;;5.50;78.40;4.70;97292.00;;;;5116884;28;20662;-71
2021/12/09 10:09:20;;;;;;;1.00;1.00;;;5.60;78.50;4.80;97293.00;;;;5116946;28;20684;-71
2021/12/09 10:11:47;;;;;;;1.00;1.00;;;5.60;78.90;4.90;97295.00;;;;5116790;28;20577;-72
2021/12/09 10:14:18;;;;;;;1.70;1.47;;;5.60;78.80;4.80;97288.00;;;;5116701;28;20237;-73
2021/12/09 10:17:00;;;;;;;1.10;1.07;;;5.60;77.80;4.60;97286.00;;;;5098901;28;20289;-72
2021/12/09 10:19:27;;;;;;;0.87;0.87;;;5.50;78.20;4.70;97283.00;;;;5116611;28;20229;-74
2021/12/09 10:22:08;;;;;;;1.10;1.10;;;5.50;78.30;4.70;97291.00;;;;5116659;28;20645;-73
2021/12/09 10:24:36;;;;;;;0.80;0.80;;;5.50;78.40;4.70;97290.00;;;;5116608;28;20228;-73
2021/12/09 10:27:04;;;;;;;0.80;0.80;;;5.50;78.50;4.70;97286.00;;;;5098583;28;20209;-73
2021/12/09 10:29:37;;;;;;;1.03;1.03;;;5.50;78.30;4.80;97292.00;;;;5098761;28;20202;-72
2021/12/09 10:32:10;;;;;;;1.00;1.00;;;5.50;77.80;4.90;97296.00;;;;5116397;28;20228;-73
2021/12/09 10:34:41;;;;;;;0.90;0.90;;;5.60;77.50;4.60;97307.00;;;;5116494;28;20369;-72
2021/12/09 10:37:16;;;;;;;2.13;2.03;;;5.50;76.80;4.80;97290.00;;;;5116346;28;20629;-73
2021/12/09 10:39:50;;;;;;;1.70;1.47;;;5.50;76.80;5.00;97258.00;;;;5115518;28;20513;-73
2021/12/09 10:42:22;;;;;;;2.50;2.30;;;5.60;76.70;4.80;97289.00;;;;5116296;28;20201;-73
2021/12/09 10:44:58;;;;;;;1.80;0.87;;;5.50;75.20;4.80;97288.00;;;;5116263;28;20235;-73
2021/12/09 10:47:48;;;;;;;0.80;0.80;;;5.50;76.30;4.90;97291.00;;;;5098308;28;20221;-72
2021/12/09 10:50:27;;;;;;;0.70;0.70;;;5.60;76.00;4.90;97282.00;;;;5116057;28;20313;-72
2021/12/09 10:53:00;;;;;;;1.37;1.27;;;5.60;75.30;5.00;97292.00;;;;5116035;28;20635;-71
2021/12/09 10:55:33;;;;;;;1.33;1.33;;;5.70;75.80;5.00;97286.00;;;;5115307;28;20281;-71
2021/12/09 10:58:06;;;;;;;1.47;1.37;;;5.80;75.50;5.20;97283.00;;;;5115956;28;20209;-72
2021/12/09 11:00:41;;;;;;;1.50;1.40;;;5.80;75.40;5.30;97289.00;;;;5115736;28;20307;-73
2021/12/09 11:03:19;;;;;;;2.10;1.83;;;5.90;75.00;5.20;97275.00;;;;5115918;28;20252;-72
2021/12/09 11:05:53;;;;;;;1.63;1.53;;;5.90;74.50;5.30;97271.00;;;;5098073;28;20280;-72
2021/12/09 11:08:31;;;;;;;1.63;1.53;;;5.90;74.80;5.40;97275.00;;;;5115903;28;20219;-73
2021/12/09 11:11:12;;;;;;;1.10;1.10;;;6.00;75.50;5.40;97272.00;;;;5115585;28;20206;-73
2021/12/09 11:13:49;;;;;;;0.93;0.93;;;6.10;75.80;5.50;97264.00;;;;5097791;28;20225;-74
2021/12/09 11:16:26;;;;;;;1.27;1.13;;;6.10;76.10;5.70;97260.00;;;;5097751;28;20233;-72
2021/12/09 11:18:58;;;;;;;1.03;1.03;;;6.30;75.70;5.80;97265.00;;;;5115666;28;20209;-72
2021/12/09 11:21:33;;;;;;;1.17;1.17;;;6.30;74.40;5.40;97271.00;;;;5115615;28;20233;-73